Time;durP1;ratioP1;P1;durP2;ratioP2;P2;SDS_P1;SDS_P2;PMS_P1;PMS_P2;Temp;Humidity;BMP_temperature;BMP_pressure;BME280_temperature;BME280_humidity;BME280_pressure;Samples;Min_cycle;Max_cycle;Signal;HPM_P1;HPM_P2
2021/06/22 00:01:12;;;;;;;31.40;4.85;;;;;;;23.60;63.60;99937.63;1779617;80;20981;-70
2021/06/22 00:03:39;;;;;;;28.15;4.28;;;;;;;23.56;63.67;99931.19;1779838;80;21397;-70
2021/06/22 00:06:07;;;;;;;15.93;3.72;;;;;;;23.53;63.57;99923.05;1779834;80;20911;-71
2021/06/22 00:08:34;;;;;;;28.38;4.65;;;;;;;23.54;63.43;99917.84;1774320;80;20931;-70
2021/06/22 00:11:02;;;;;;;19.32;4.20;;;;;;;23.52;63.27;99917.90;1780221;80;22316;-71
2021/06/22 00:13:29;;;;;;;26.68;4.10;;;;;;;23.49;63.01;99911.13;1778785;80;21357;-69
2021/06/22 00:15:56;;;;;;;18.67;4.25;;;;;;;23.47;63.07;99901.61;1779654;80;21019;-70
2021/06/22 00:18:24;;;;;;;15.08;3.80;;;;;;;23.48;62.90;99899.13;1779852;80;21005;-70
2021/06/22 00:20:51;;;;;;;15.90;3.58;;;;;;;23.47;62.35;99894.23;1725512;80;20966;-70
2021/06/22 00:23:19;;;;;;;13.90;4.08;;;;;;;23.47;62.21;99895.60;1779998;80;21133;-70
2021/06/22 00:25:46;;;;;;;16.93;3.70;;;;;;;23.46;62.07;99890.45;1779798;80;21013;-70
2021/06/22 00:28:13;;;;;;;18.92;4.17;;;;;;;23.44;61.73;99879.83;1780290;80;21009;-69
2021/06/22 00:30:39;;;;;;;17.70;3.50;;;;;;;23.38;61.65;99879.70;1750052;80;21508;-68
2021/06/22 00:33:06;;;;;;;26.33;4.53;;;;;;;23.36;61.86;99875.91;1780191;80;20908;-68
2021/06/22 00:35:34;;;;;;;20.45;4.35;;;;;;;23.38;61.58;99871.50;1749841;80;21127;-69
2021/06/22 00:38:01;;;;;;;19.55;4.65;;;;;;;23.37;61.42;99870.70;1780309;80;20970;-69
2021/06/22 00:40:28;;;;;;;20.92;4.10;;;;;;;23.34;61.37;99870.55;1749981;80;21519;-69
2021/06/22 00:42:55;;;;;;;20.88;3.95;;;;;;;23.31;61.44;99868.44;1780284;80;20947;-69
2021/06/22 00:45:31;;;;;;;27.20;4.55;;;;;;;23.33;61.40;99857.41;1776976;80;21086;-69
2021/06/22 00:48:00;;;;;;;30.82;5.15;;;;;;;23.30;61.40;99854.52;1770695;80;21119;-69
2021/06/22 00:50:27;;;;;;;17.82;4.03;;;;;;;23.28;61.46;99843.90;1749915;80;20908;-69
2021/06/22 00:52:56;;;;;;;19.45;3.37;;;;;;;23.31;61.25;99845.99;1779615;80;21006;-69
2021/06/22 00:55:30;;;;;;;15.20;3.13;;;;;;;23.33;60.93;99836.11;1749481;80;21055;-68
2021/06/22 00:58:05;;;;;;;14.38;3.27;;;;;;;23.35;60.91;99831.12;1774966;80;20970;-70
2021/06/22 01:00:34;;;;;;;17.82;4.40;;;;;;;23.35;60.43;99834.67;1770251;80;21128;-70
2021/06/22 01:03:01;;;;;;;15.48;3.75;;;;;;;23.34;60.22;99833.63;1780143;80;21033;-70
2021/06/22 01:05:30;;;;;;;20.10;3.92;;;;;;;23.34;60.19;99837.73;1778878;80;20871;-71
2021/06/22 01:07:59;;;;;;;15.70;3.60;;;;;;;23.32;59.81;99833.95;1748814;80;20887;-69
2021/06/22 01:10:26;;;;;;;13.88;2.80;;;;;;;23.31;59.83;99836.42;1779824;80;21030;-69
2021/06/22 01:12:56;;;;;;;18.82;3.67;;;;;;;23.30;59.48;99833.44;1780097;80;21082;-69
2021/06/22 01:15:29;;;;;;;23.85;3.33;;;;;;;23.29;59.38;99837.86;1779723;79;20868;-71
2021/06/22 01:18:00;;;;;;;16.93;3.50;;;;;;;23.25;59.25;99836.33;1778064;80;20871;-69
2021/06/22 01:20:32;;;;;;;20.37;3.65;;;;;;;23.20;59.32;99827.71;1749394;80;21014;-70
2021/06/22 01:23:01;;;;;;;19.25;3.83;;;;;;;23.17;59.42;99820.11;1778483;80;20931;-70
2021/06/22 01:25:29;;;;;;;18.42;4.05;;;;;;;23.15;59.47;99818.27;1779935;80;21109;-71
2021/06/22 01:27:57;;;;;;;17.75;3.50;;;;;;;23.13;59.65;99819.16;1780353;80;20852;-69
2021/06/22 01:30:28;;;;;;;23.27;4.05;;;;;;;23.12;59.63;99827.11;1779884;80;20872;-70
2021/06/22 01:32:57;;;;;;;17.37;4.33;;;;;;;23.09;59.60;99829.08;1742751;80;20959;-70
2021/06/22 01:35:25;;;;;;;17.77;3.77;;;;;;;23.04;59.67;99825.92;1779550;80;20995;-69
2021/06/22 01:37:56;;;;;;;21.13;3.13;;;;;;;23.00;59.86;99836.44;1750150;80;21107;-69
2021/06/22 01:40:25;;;;;;;23.65;3.80;;;;;;;22.97;59.93;99843.33;1779762;80;20951;-69
2021/06/22 01:42:53;;;;;;;16.27;3.40;;;;;;;22.92;59.92;99840.72;1780198;80;20915;-69
2021/06/22 01:45:20;;;;;;;15.55;3.47;;;;;;;22.87;59.87;99849.06;1749556;80;21066;-69
2021/06/22 01:47:48;;;;;;;18.80;4.00;;;;;;;22.83;59.49;99857.06;1779972;80;20927;-70
2021/06/22 01:50:16;;;;;;;14.43;2.75;;;;;;;22.80;59.42;99862.36;1779835;80;21748;-70
2021/06/22 01:52:44;;;;;;;16.65;2.80;;;;;;;22.73;59.31;99860.88;1779743;80;21481;-69
2021/06/22 01:57:58;;;;;;;15.28;3.27;;;;;;;22.63;59.47;99869.33;1774856;80;20919;-69
2021/06/22 02:00:29;;;;;;;18.17;4.15;;;;;;;22.59;59.22;99872.43;1740635;80;20986;-72
2021/06/22 02:02:58;;;;;;;14.18;3.20;;;;;;;22.57;59.23;99870.58;1779495;80;21126;-71
2021/06/22 02:05:25;;;;;;;14.60;3.55;;;;;;;22.56;59.05;99884.77;1780025;80;20985;-71
2021/06/22 02:07:54;;;;;;;17.57;3.47;;;;;;;22.55;59.12;99889.98;1760822;80;21487;-69
2021/06/22 02:10:23;;;;;;;12.03;2.87;;;;;;;22.52;59.24;99876.15;1787831;80;20974;-70
2021/06/22 02:13:01;;;;;;;21.73;3.95;;;;;;;22.50;59.36;99866.11;1756456;80;21096;-70
2021/06/22 02:15:28;;;;;;;16.12;3.00;;;;;;;22.51;59.31;99867.16;1788946;80;21128;-70
2021/06/22 02:17:56;;;;;;;17.75;3.85;;;;;;;22.53;58.96;99854.56;1788652;80;20934;-71
2021/06/22 02:20:24;;;;;;;12.33;3.27;;;;;;;22.53;58.69;99855.92;1783781;80;21453;-72
2021/06/22 02:22:51;;;;;;;13.72;2.62;;;;;;;22.52;58.49;99851.58;1788670;80;20911;-71
2021/06/22 02:25:19;;;;;;;15.83;4.10;;;;;;;22.52;58.50;99849.64;1788286;80;20966;-70
2021/06/22 02:27:46;;;;;;;15.20;3.05;;;;;;;22.53;58.31;99848.53;1788358;80;21378;-70
2021/06/22 02:30:18;;;;;;;12.70;2.75;;;;;;;22.53;58.25;99843.64;1788560;80;20950;-69
2021/06/22 02:32:45;;;;;;;21.23;3.33;;;;;;;22.54;58.21;99839.77;1788237;80;20915;-69
2021/06/22 02:35:14;;;;;;;13.60;3.25;;;;;;;22.55;58.10;99841.39;1780672;80;21528;-68
2021/06/22 02:37:43;;;;;;;16.00;3.35;;;;;;;22.56;57.92;99838.91;1788571;80;20911;-69
2021/06/22 02:40:11;;;;;;;13.35;2.75;;;;;;;22.59;57.74;99827.94;1788804;80;21117;-68
2021/06/22 02:42:39;;;;;;;16.25;3.10;;;;;;;22.59;57.67;99828.73;1761139;80;21040;-69
2021/06/22 02:45:09;;;;;;;16.52;3.15;;;;;;;22.62;57.62;99835.50;1787835;80;20962;-68
2021/06/22 02:47:36;;;;;;;17.40;3.27;;;;;;;22.63;57.34;99828.36;1788565;80;20931;-69
2021/06/22 02:50:05;;;;;;;11.38;3.00;;;;;;;22.63;57.55;99831.09;1788648;80;20946;-69
2021/06/22 02:52:33;;;;;;;10.93;2.50;;;;;;;22.68;57.45;99838.34;1758171;80;21145;-69
2021/06/22 02:55:01;;;;;;;13.25;2.85;;;;;;;22.69;57.54;99835.88;1762441;80;20977;-71
2021/06/22 02:57:29;;;;;;;18.63;3.57;;;;;;;22.72;57.67;99833.87;1780758;80;20840;-71
2021/06/22 02:59:58;;;;;;;16.62;2.80;;;;;;;22.77;57.75;99845.23;1784665;80;20991;-72
2021/06/22 03:02:25;;;;;;;20.23;3.02;;;;;;;22.77;57.82;99847.96;1758119;80;20974;-71
2021/06/22 03:04:53;;;;;;;12.15;3.17;;;;;;;22.76;57.93;99852.59;1753536;79;21122;-71
2021/06/22 03:07:20;;;;;;;12.33;2.75;;;;;;;22.75;57.99;99851.80;1784526;80;21512;-69
2021/06/22 03:09:47;;;;;;;15.25;3.40;;;;;;;22.75;58.11;99846.91;1771737;80;20931;-70
2021/06/22 03:12:15;;;;;;;23.17;3.53;;;;;;;22.78;58.28;99859.94;1779821;80;21010;-70
2021/06/22 03:14:48;;;;;;;17.32;3.85;;;;;;;22.81;58.23;99857.95;1775290;80;20899;-72
2021/06/22 03:17:21;;;;;;;13.32;3.22;;;;;;;22.84;58.37;99864.72;1778487;80;20896;-71
2021/06/22 03:19:49;;;;;;;11.00;3.00;;;;;;;22.87;57.95;99869.55;1740600;80;20856;-70
2021/06/22 03:22:16;;;;;;;18.40;4.00;;;;;;;22.85;57.97;99867.67;1779539;80;20908;-71
2021/06/22 03:24:45;;;;;;;18.60;3.17;;;;;;;22.81;58.05;99866.71;1779697;80;21006;-71
2021/06/22 03:27:12;;;;;;;16.35;3.22;;;;;;;22.83;58.07;99864.46;1775457;80;21065;-71
2021/06/22 03:29:50;;;;;;;13.98;2.98;;;;;;;22.85;58.15;99864.41;1718311;82;21971;-71
2021/06/22 03:32:17;;;;;;;10.63;2.60;;;;;;;22.91;58.22;99860.41;1736739;80;20911;-71
2021/06/22 03:34:44;;;;;;;7.22;2.37;;;;;;;22.98;58.08;99857.79;1780124;80;21508;-70
2021/06/22 03:37:11;;;;;;;13.78;2.45;;;;;;;23.05;58.11;99862.25;1749421;80;21005;-70
2021/06/22 03:39:38;;;;;;;12.15;2.92;;;;;;;23.08;58.05;99857.52;1779705;80;22636;-70
2021/06/22 03:42:07;;;;;;;10.78;3.08;;;;;;;23.11;57.80;99852.82;1744580;80;21112;-71
2021/06/22 03:44:36;;;;;;;14.85;2.95;;;;;;;23.13;57.77;99849.77;1777716;80;20955;-71
2021/06/22 03:47:05;;;;;;;13.80;2.95;;;;;;;23.14;58.06;99858.22;1776702;80;20923;-71
2021/06/22 03:49:32;;;;;;;16.37;3.30;;;;;;;23.18;57.78;99856.48;1746875;80;20975;-71
2021/06/22 03:51:59;;;;;;;15.23;3.80;;;;;;;23.23;57.65;99852.22;1749328;80;20871;-72
2021/06/22 03:54:28;;;;;;;14.13;3.52;;;;;;;23.33;57.44;99846.47;1778661;80;21131;-71
2021/06/22 03:56:55;;;;;;;13.25;3.40;;;;;;;23.42;57.23;99849.23;1761264;80;20939;-70
2021/06/22 03:59:25;;;;;;;13.80;2.85;;;;;;;23.53;56.84;99868.34;1774463;80;20999;-70
2021/06/22 04:01:52;;;;;;;19.60;3.58;;;;;;;23.61;57.20;99882.62;1778761;80;20923;-69
2021/06/22 04:04:19;;;;;;;14.10;3.30;;;;;;;23.60;57.40;99883.73;1779073;80;20927;-69
2021/06/22 04:06:48;;;;;;;13.08;3.40;;;;;;;23.56;57.78;99878.65;1776194;80;21745;-70
2021/06/22 04:09:24;;;;;;;14.73;3.12;;;;;;;23.53;57.56;99883.39;1785406;80;20958;-69
2021/06/22 04:11:49;;;;;;;14.13;3.05;;;;;;;23.50;55.85;99866.25;1781753;80;20919;-72
2021/06/22 04:14:16;;;;;;;14.33;3.10;;;;;;;23.47;55.91;99867.42;1785668;80;20962;-58
2021/06/22 04:16:47;;;;;;;18.27;2.95;;;;;;;23.49;56.10;99864.63;1782669;80;20998;-57
2021/06/22 04:19:14;;;;;;;17.60;3.40;;;;;;;23.52;56.04;99849.52;1757463;80;21103;-54
2021/06/22 04:21:42;;;;;;;;;;;;;;;23.59;56.43;99847.92;1788197;80;21011;-55
2021/06/22 04:24:26;;;;;;;17.10;2.72;;;;;;;23.68;56.54;99851.25;1784070;80;20141;-56
2021/06/22 04:26:54;;;;;;;21.65;3.37;;;;;;;23.76;56.26;99831.30;1757359;80;20974;-57
2021/06/22 04:29:21;;;;;;;11.68;3.10;;;;;;;23.84;55.71;99827.77;1785531;80;20867;-57
2021/06/22 04:31:48;;;;;;;26.00;3.30;;;;;;;23.88;55.61;99828.78;1757466;80;21077;-55
2021/06/22 04:34:15;;;;;;;14.40;3.72;;;;;;;23.89;56.33;99832.31;1785242;80;20976;-58
2021/06/22 04:36:42;;;;;;;12.95;3.77;;;;;;;23.85;55.33;99849.92;1785535;80;21608;-60
2021/06/22 04:39:08;;;;;;;14.98;3.27;;;;;;;23.70;55.26;99859.36;1783831;79;21023;-60
2021/06/22 04:41:35;;;;;;;18.27;3.83;;;;;;;23.50;55.99;99876.36;1747789;80;21523;-61
2021/06/22 04:44:03;;;;;;;16.80;3.90;;;;;;;23.33;56.21;99887.48;1784976;80;21048;-60
2021/06/22 04:46:30;;;;;;;18.85;3.12;;;;;;;23.17;56.80;99893.92;1754609;80;20911;-63
2021/06/22 04:48:57;;;;;;;15.68;3.27;;;;;;;23.07;57.07;99889.52;1784723;80;20935;-60
2021/06/22 04:51:24;;;;;;;16.60;3.45;;;;;;;23.01;56.60;99900.34;1781336;80;21615;-60
2021/06/22 04:53:51;;;;;;;15.50;3.72;;;;;;;22.91;56.42;99884.21;1784809;80;21042;-60
2021/06/22 04:56:22;;;;;;;20.30;3.47;;;;;;;22.85;56.66;99897.20;1784974;80;21187;-60
2021/06/22 04:58:52;;;;;;;15.95;3.37;;;;;;;22.82;56.37;99899.73;1776949;80;21643;-60
2021/06/22 05:01:19;;;;;;;20.37;3.60;;;;;;;22.79;55.84;99893.52;1783139;80;20950;-60
2021/06/22 05:03:46;;;;;;;21.05;3.60;;;;;;;22.76;55.62;99918.16;1784772;80;21560;-60
2021/06/22 05:06:13;;;;;;;21.65;3.25;;;;;;;22.74;56.00;99909.48;1785312;80;21470;-59
2021/06/22 05:08:40;;;;;;;21.07;3.52;;;;;;;22.72;55.62;99903.53;1749423;80;21891;-61
2021/06/22 05:11:07;;;;;;;15.60;3.27;;;;;;;22.73;55.81;99901.86;1777581;80;20884;-61
2021/06/22 05:13:34;;;;;;;20.27;3.45;;;;;;;22.74;55.75;99884.33;1775583;80;21096;-61
2021/06/22 05:16:01;;;;;;;19.30;3.15;;;;;;;22.78;55.87;99893.30;1778826;79;20958;-59
2021/06/22 05:18:28;;;;;;;15.80;3.83;;;;;;;22.81;56.01;99897.56;1781193;79;21524;-59
2021/06/22 05:20:55;;;;;;;30.27;4.60;;;;;;;22.90;55.60;99903.09;1779628;80;21145;-59
2021/06/22 05:23:22;;;;;;;17.02;3.08;;;;;;;22.97;55.18;99884.86;1747197;80;21552;-59
2021/06/22 05:25:50;;;;;;;15.78;3.10;;;;;;;23.06;55.62;99881.06;1779647;80;20994;-59
2021/06/22 05:28:17;;;;;;;27.73;3.75;;;;;;;23.16;55.68;99878.66;1779510;80;21505;-60
2021/06/22 05:30:43;;;;;;;18.55;3.87;;;;;;;23.31;55.63;99866.50;1779691;80;20987;-60
2021/06/22 05:33:11;;;;;;;22.60;3.62;;;;;;;23.50;55.36;99866.25;1777719;80;21123;-60
2021/06/22 05:35:38;;;;;;;22.25;4.17;;;;;;;23.74;53.94;99858.98;1779887;80;21382;-60
2021/06/22 05:38:05;;;;;;;23.95;3.95;;;;;;;23.97;53.72;99867.11;1775246;80;20903;-60
2021/06/22 05:40:32;;;;;;;25.23;3.60;;;;;;;24.21;54.19;99857.05;1749661;80;21014;-60
2021/06/22 05:42:59;;;;;;;25.30;4.40;;;;;;;24.50;52.08;99872.03;1777314;79;21018;-60
2021/06/22 05:45:26;;;;;;;28.40;4.60;;;;;;;24.80;52.83;99869.42;1779827;80;21142;-60
2021/06/22 05:47:53;;;;;;;26.70;3.17;;;;;;;25.13;51.68;99872.95;1780292;80;20931;-61
2021/06/22 05:50:20;;;;;;;23.98;4.78;;;;;;;25.38;50.39;99882.23;1779989;80;20881;-60
2021/06/22 05:52:49;;;;;;;27.95;4.28;;;;;;;25.55;50.18;99880.56;1747726;80;21446;-61
2021/06/22 05:55:21;;;;;;;37.90;4.60;;;;;;;25.66;48.04;99874.36;1779835;80;21469;-60
2021/06/22 05:57:52;;;;;;;24.72;4.45;;;;;;;25.68;47.94;99877.57;1778352;80;21134;-60
2021/06/22 06:00:21;;;;;;;33.28;4.60;;;;;;;25.69;47.26;99876.44;1779528;80;21022;-60
2021/06/22 06:02:49;;;;;;;23.42;4.60;;;;;;;25.70;47.27;99881.35;1771523;80;20974;-61
2021/06/22 06:05:17;;;;;;;39.73;4.25;;;;;;;25.72;47.24;99874.95;1779729;80;20920;-61
2021/06/22 06:07:44;;;;;;;;;;;;;;;25.71;47.92;99882.97;1776047;80;20975;-61
2021/06/22 06:10:12;;;;;;;40.92;5.50;;;;;;;25.75;47.76;99885.30;1779035;80;21087;-62
2021/06/22 06:12:40;;;;;;;38.00;5.10;;;;;;;25.73;48.04;99873.83;1770223;80;21602;-61
2021/06/22 06:15:07;;;;;;;50.83;7.58;;;;;;;25.75;47.81;99883.92;1778307;80;20899;-60
2021/06/22 06:17:36;;;;;;;28.70;4.67;;;;;;;25.78;47.27;99886.00;1778831;80;20935;-61
2021/06/22 06:20:12;;;;;;;41.60;6.00;;;;;;;25.78;47.04;99863.22;1780526;80;20927;-60
2021/06/22 06:22:40;;;;;;;39.78;6.40;;;;;;;25.75;48.25;99886.66;1779104;80;21445;-62
2021/06/22 06:25:08;;;;;;;41.28;5.95;;;;;;;25.86;47.98;99864.53;1780028;80;21010;-61
2021/06/22 06:27:39;;;;;;;31.93;5.20;;;;;;;26.05;47.53;99883.91;1779567;80;21023;-61
2021/06/22 06:30:08;;;;;;;33.48;4.95;;;;;;;26.12;47.73;99877.32;1776707;80;21536;-61
2021/06/22 06:32:35;;;;;;;38.23;5.78;;;;;;;26.23;47.81;99877.70;1778798;80;20985;-62
2021/06/22 06:35:03;;;;;;;44.35;6.35;;;;;;;26.38;46.30;99880.41;1750208;80;21121;-61
2021/06/22 06:37:32;;;;;;;29.30;5.72;;;;;;;26.40;46.45;99880.89;1779577;79;21093;-61
2021/06/22 06:39:59;;;;;;;44.73;6.60;;;;;;;26.36;46.33;99885.45;1779916;80;20911;-61
2021/06/22 06:42:27;;;;;;;41.63;7.13;;;;;;;26.36;46.64;99891.73;1773081;80;20933;-61
2021/06/22 06:44:55;;;;;;;44.27;7.22;;;;;;;26.46;46.09;99885.03;1778516;80;20935;-61
2021/06/22 06:47:22;;;;;;;50.48;7.33;;;;;;;26.51;45.37;99886.19;1779080;80;21122;-61
2021/06/22 06:49:49;;;;;;;53.08;6.55;;;;;;;26.50;45.07;99881.03;1776222;80;20856;-61
2021/06/22 06:52:16;;;;;;;56.25;7.42;;;;;;;26.50;45.63;99892.84;1774805;80;21503;-61
2021/06/22 06:54:43;;;;;;;43.25;6.90;;;;;;;26.52;45.39;99884.27;1775116;80;20951;-62
2021/06/22 06:57:10;;;;;;;53.83;7.50;;;;;;;26.54;45.30;99888.26;1770572;80;21371;-61
2021/06/22 06:59:37;;;;;;;43.55;7.78;;;;;;;26.55;45.64;99888.50;1775565;80;21154;-61
2021/06/22 07:02:05;;;;;;;45.90;6.97;;;;;;;26.65;45.17;99897.45;1775778;80;20959;-60
2021/06/22 07:04:35;;;;;;;58.70;7.75;;;;;;;26.78;44.84;99891.47;1780302;80;20987;-61
2021/06/22 07:07:03;;;;;;;41.08;6.85;;;;;;;26.87;44.46;99894.92;1779721;80;20990;-61
2021/06/22 07:09:30;;;;;;;75.25;8.08;;;;;;;26.89;43.72;99898.95;1784811;80;21029;-62
2021/06/22 07:11:58;;;;;;;54.20;7.92;;;;;;;26.90;43.28;99910.19;1785414;80;21177;-62
2021/06/22 07:14:25;;;;;;;62.30;7.70;;;;;;;26.82;43.42;99902.02;1785390;80;21445;-60
2021/06/22 07:16:52;;;;;;;64.22;9.83;;;;;;;26.80;43.40;99906.48;1784983;80;21025;-60
2021/06/22 07:19:19;;;;;;;50.10;8.88;;;;;;;26.79;43.14;99904.88;1781987;80;20955;-64
2021/06/22 07:21:47;;;;;;;46.30;7.67;;;;;;;26.79;43.96;99909.58;1781479;79;21598;-61
2021/06/22 07:24:14;;;;;;;66.28;9.28;;;;;;;26.84;43.52;99909.35;1780538;79;21110;-61
2021/06/22 07:26:41;;;;;;;65.17;8.30;;;;;;;26.89;43.41;99931.15;1762816;80;20839;-62
2021/06/22 07:29:09;;;;;;;61.05;9.63;;;;;;;26.90;42.92;99939.05;1785418;80;20923;-60
2021/06/22 07:31:36;;;;;;;59.27;9.90;;;;;;;26.84;42.07;99920.34;1778963;80;21034;-60
2021/06/22 07:34:04;;;;;;;71.15;8.70;;;;;;;26.77;42.53;99944.28;1783506;80;22989;-60
2021/06/22 07:36:31;;;;;;;55.33;9.00;;;;;;;26.78;42.58;99932.70;1783213;80;21126;-62
2021/06/22 07:38:58;;;;;;;69.95;9.30;;;;;;;26.79;42.91;99936.48;1757863;80;20852;-60
2021/06/22 07:41:25;;;;;;;63.37;8.93;;;;;;;26.86;42.53;99944.20;1781693;80;20864;-60
2021/06/22 07:43:53;;;;;;;52.67;9.40;;;;;;;26.86;42.53;99944.20;1777898;80;20898;-60
2021/06/22 07:46:20;;;;;;;55.55;8.93;;;;;;;26.93;42.55;99937.00;1775670;80;21013;-62
2021/06/22 07:48:47;;;;;;;66.90;8.70;;;;;;;26.99;42.83;99934.05;1783130;80;21092;-63
2021/06/22 07:51:14;;;;;;;54.40;9.10;;;;;;;26.92;42.29;99941.47;1772602;80;20995;-60
2021/06/22 07:53:42;;;;;;;60.87;9.27;;;;;;;26.74;42.96;99936.13;1779804;80;20963;-62
2021/06/22 07:56:10;;;;;;;51.35;7.70;;;;;;;26.74;42.96;99936.13;1756419;80;38871;-61
2021/06/22 07:58:37;;;;;;;69.77;9.68;;;;;;;26.76;43.61;99955.03;1772553;80;21002;-61
2021/06/22 08:01:04;;;;;;;72.20;9.23;;;;;;;26.79;42.57;99946.11;1781242;80;21137;-63
2021/06/22 08:03:31;;;;;;;78.50;10.35;;;;;;;26.82;42.33;99942.69;1785526;80;20867;-64
2021/06/22 08:05:59;;;;;;;;;;;;;;;26.80;42.36;99944.98;1787639;80;20883;-61
2021/06/22 08:08:26;;;;;;;76.70;9.55;;;;;;;26.79;42.85;99944.73;1785399;80;20079;-61
2021/06/22 08:10:55;;;;;;;56.10;9.13;;;;;;;26.82;43.23;99930.89;1757062;80;20974;-63
2021/06/22 08:13:22;;;;;;;60.28;10.10;;;;;;;26.86;42.97;99931.83;1785529;80;21184;-61
2021/06/22 08:15:49;;;;;;;61.98;9.33;;;;;;;26.86;43.36;99924.37;1756599;80;20906;-61
2021/06/22 08:18:16;;;;;;;71.65;12.13;;;;;;;26.89;43.60;99933.31;1784738;80;21493;-61
2021/06/22 08:20:43;;;;;;;80.92;11.12;;;;;;;26.93;43.86;99940.33;1784963;80;20943;-61
2021/06/22 08:23:10;;;;;;;72.80;9.63;;;;;;;27.00;43.61;99942.52;1785754;80;20864;-62
2021/06/22 08:25:38;;;;;;;;;;;;;;;27.08;43.63;99938.30;1787866;80;21104;-63
2021/06/22 08:28:05;;;;;;;61.18;9.48;;;;;;;27.11;44.29;99943.70;1785781;80;20474;-62
2021/06/22 08:30:32;;;;;;;54.95;9.33;;;;;;;27.04;44.23;99940.11;1781786;80;20962;-63
2021/06/22 08:32:59;;;;;;;61.13;9.48;;;;;;;26.93;44.72;99941.70;1756963;80;20970;-60
2021/06/22 08:35:26;;;;;;;64.22;9.98;;;;;;;26.80;44.66;99946.35;1785409;80;21050;-63
2021/06/22 08:37:54;;;;;;;;;;;;;;;26.76;45.52;99939.91;1787970;80;21096;-61
2021/06/22 08:40:21;;;;;;;64.40;9.58;;;;;;;26.84;46.12;99935.47;1785307;80;20094;-59
2021/06/22 08:42:48;;;;;;;78.22;10.38;;;;;;;26.96;47.14;99937.45;1785449;80;20939;-61
2021/06/22 08:45:16;;;;;;;63.52;7.47;;;;;;;26.98;46.18;99934.60;1757025;80;21041;-59
2021/06/22 08:47:43;;;;;;;64.35;9.38;;;;;;;26.92;45.46;99936.77;1785356;80;21003;-59
2021/06/22 08:50:12;;;;;;;92.17;10.82;;;;;;;26.91;45.91;99938.47;1785646;80;21123;-61
2021/06/22 08:52:39;;;;;;;60.78;9.53;;;;;;;26.88;45.89;99933.66;1785300;80;20832;-61
2021/06/22 08:55:32;;;;;;;81.93;10.47;;;;;;;26.87;46.13;99932.04;1754246;80;21461;-60
2021/06/22 08:58:03;;;;;;;67.70;10.03;;;;;;;26.84;45.75;99944.54;1777344;80;21930;-60
2021/06/22 09:00:35;;;;;;;76.28;9.73;;;;;;;26.84;46.54;99944.54;1785198;80;21030;-60
2021/06/22 09:03:06;;;;;;;63.02;9.95;;;;;;;26.89;45.93;99945.69;1741053;80;21110;-62
2021/06/22 09:05:33;;;;;;;66.92;8.55;;;;;;;26.89;45.74;99936.06;1782164;80;21017;-59
2021/06/22 09:08:00;;;;;;;61.60;9.48;;;;;;;26.88;46.33;99941.35;1777203;80;21089;-60
2021/06/22 09:10:31;;;;;;;86.28;10.18;;;;;;;27.00;45.58;99949.39;1773615;80;21450;-60
2021/06/22 09:13:18;;;;;;;90.67;11.28;;;;;;;27.09;45.58;99948.16;1779648;80;20939;-59
2021/06/22 09:15:49;;;;;;;69.05;10.93;;;;;;;27.09;45.93;99955.04;1779463;80;21062;-60
2021/06/22 09:18:33;;;;;;;69.42;10.78;;;;;;;27.04;45.49;99962.70;1779451;80;21034;-58
2021/06/22 09:21:14;;;;;;;68.70;10.48;;;;;;;26.92;46.15;99962.09;1778699;80;20986;-58
2021/06/22 09:23:43;;;;;;;97.37;12.68;;;;;;;26.85;46.52;99959.88;1778589;80;20884;-58
2021/06/22 09:26:16;;;;;;;66.53;10.35;;;;;;;26.90;46.16;99967.13;1780003;80;20915;-60
2021/06/22 09:28:43;;;;;;;78.57;11.18;;;;;;;26.99;46.81;99973.34;1779865;80;21895;-59
2021/06/22 09:31:13;;;;;;;54.75;10.25;;;;;;;27.13;45.72;99974.41;1772804;80;21006;-58
2021/06/22 09:33:42;;;;;;;85.62;10.90;;;;;;;27.17;45.01;99967.67;1747952;80;21426;-60
2021/06/22 09:36:21;;;;;;;61.73;10.72;;;;;;;27.12;45.25;99968.70;1778980;80;21011;-60
2021/06/22 09:38:52;;;;;;;83.33;12.15;;;;;;;27.17;45.70;99967.67;1779352;80;21413;-58
2021/06/22 09:41:28;;;;;;;73.50;12.70;;;;;;;27.21;46.25;99971.36;1776326;80;21090;-60
2021/06/22 09:44:08;;;;;;;66.62;9.83;;;;;;;27.25;45.69;99966.75;1778368;80;20926;-60
2021/06/22 09:46:53;;;;;;;75.32;11.18;;;;;;;27.31;45.67;99959.91;1778944;80;20924;-60
2021/06/22 09:49:31;;;;;;;92.42;11.43;;;;;;;27.34;46.62;99969.44;1779613;80;20919;-61
2021/06/22 09:52:03;;;;;;;99.72;11.18;;;;;;;27.45;45.50;99967.86;1778755;80;22605;-60
2021/06/22 09:54:55;;;;;;;91.67;11.12;;;;;;;27.51;44.92;99973.38;1776333;80;21878;-60
2021/06/22 09:57:25;;;;;;;78.07;9.30;;;;;;;27.50;44.13;99970.97;1778791;80;21537;-61
2021/06/22 10:00:04;;;;;;;90.80;11.85;;;;;;;27.37;44.30;99962.70;1773305;80;20987;-59
2021/06/22 10:02:28;;;;;;;85.77;13.62;;;;;;;27.26;45.24;99984.88;1778877;80;21028;-60
2021/06/22 10:04:58;;;;;;;91.53;12.05;;;;;;;27.25;44.90;99973.63;1780032;80;21005;-60
2021/06/22 10:07:28;;;;;;;80.50;12.43;;;;;;;27.28;45.07;99968.27;1772661;80;21104;-60
2021/06/22 10:10:02;;;;;;;93.95;12.70;;;;;;;27.34;44.98;99972.20;1779500;80;21643;-61
2021/06/22 10:12:30;;;;;;;89.58;11.40;;;;;;;27.36;44.23;99983.09;1779707;80;20919;-60
2021/06/22 10:15:03;;;;;;;104.55;13.38;;;;;;;27.37;43.83;99974.27;1772151;80;20940;-58
2021/06/22 10:17:31;;;;;;;81.80;12.95;;;;;;;27.40;43.73;99985.41;1773253;80;20959;-59
2021/06/22 10:20:02;;;;;;;91.17;13.30;;;;;;;27.40;44.23;99964.77;1768625;80;21159;-60
2021/06/22 10:22:32;;;;;;;106.50;14.18;;;;;;;27.41;43.90;99959.50;1779772;80;21077;-59
2021/06/22 10:25:00;;;;;;;92.42;14.23;;;;;;;27.37;44.20;99967.38;1779585;80;20911;-60
2021/06/22 10:27:41;;;;;;;89.80;11.97;;;;;;;27.38;44.71;99964.29;1779868;80;21010;-59
2021/06/22 10:30:12;;;;;;;103.60;14.05;;;;;;;27.43;44.53;99974.30;1773602;80;21378;-60
2021/06/22 10:32:40;;;;;;;101.02;14.28;;;;;;;27.47;44.43;99970.27;1775540;79;21826;-60
2021/06/22 10:35:14;;;;;;;92.65;12.05;;;;;;;27.49;44.54;99967.42;1749810;80;20966;-60
2021/06/22 10:38:00;;;;;;;109.87;13.60;;;;;;;27.48;44.01;99956.75;1779383;80;20911;-58
2021/06/22 10:40:29;;;;;;;;;;;;;;;27.44;44.05;99960.74;1771611;80;20916;-58
2021/06/22 10:42:58;;;;;;;100.00;13.08;;;;;;;27.38;45.07;99966.25;1780031;80;20090;-58
2021/06/22 10:45:25;;;;;;;99.47;13.22;;;;;;;27.40;45.19;99965.32;1749097;80;21179;-60
2021/06/22 10:47:56;;;;;;;119.28;14.50;;;;;;;27.42;45.66;99967.17;1779629;80;20974;-61
2021/06/22 10:50:29;;;;;;;105.12;12.93;;;;;;;27.44;45.31;99965.70;1772309;80;20963;-59
2021/06/22 10:53:09;;;;;;;97.95;13.08;;;;;;;27.45;45.38;99989.30;1776333;80;21533;-59
2021/06/22 10:55:42;;;;;;;97.02;12.20;;;;;;;27.50;45.47;99970.97;1772745;80;20947;-59
2021/06/22 10:58:13;;;;;;;99.52;14.93;;;;;;;27.55;45.06;99977.64;1773692;80;21102;-58
2021/06/22 11:00:53;;;;;;;92.10;13.08;;;;;;;27.59;44.98;99981.28;1772152;80;20867;-60
2021/06/22 11:03:22;;;;;;;121.65;15.48;;;;;;;27.59;44.90;99980.73;1778896;80;20868;-61
2021/06/22 11:06:07;;;;;;;86.37;11.78;;;;;;;27.61;44.65;99989.44;1775564;80;20931;-61
2021/06/22 11:08:39;;;;;;;105.45;15.15;;;;;;;27.66;43.64;100000.00;1744807;79;21464;-58
2021/06/22 11:11:12;;;;;;;112.32;15.00;;;;;;;27.67;43.36;99993.36;1789494;79;21580;-63
2021/06/22 11:13:53;;;;;;;112.12;15.32;;;;;;;27.65;43.28;99984.63;1785317;80;21052;-61
2021/06/22 11:16:25;;;;;;;126.65;17.57;;;;;;;27.62;43.52;99986.13;1783352;80;20887;-60
2021/06/22 11:19:06;;;;;;;119.93;16.82;;;;;;;27.64;43.47;99994.84;1778737;80;21033;-60
2021/06/22 11:21:49;;;;;;;117.82;16.27;;;;;;;27.66;43.65;99983.48;1782166;80;21073;-59
2021/06/22 11:24:28;;;;;;;100.40;16.60;;;;;;;27.68;43.41;99986.13;1779313;80;21150;-58
2021/06/22 11:27:03;;;;;;;107.43;16.85;;;;;;;27.69;44.24;99980.05;1781010;80;21500;-59
2021/06/22 11:29:41;;;;;;;103.30;15.28;;;;;;;27.73;43.66;99985.09;1778527;80;21614;-59
2021/06/22 11:32:08;;;;;;;97.97;13.68;;;;;;;27.77;43.88;99986.03;1781109;80;21541;-60
2021/06/22 11:34:53;;;;;;;123.15;16.62;;;;;;;27.78;43.65;99984.86;1755736;80;20963;-59
2021/06/22 11:37:21;;;;;;;134.43;17.35;;;;;;;27.79;42.98;99979.59;1783637;80;21132;-60